createdAt,value
2022-10-10T00:01:15.918Z,0.70
2022-10-10T00:06:23.862Z,0.60
2022-10-10T00:11:31.972Z,0.60
2022-10-10T00:16:41.433Z,0.60
2022-10-10T00:21:50.292Z,0.57
2022-10-10T00:26:59.418Z,0.53
2022-10-10T00:32:12.067Z,0.53
2022-10-10T00:37:24.941Z,0.60
2022-10-10T00:42:35.622Z,0.70
2022-10-10T00:47:44.170Z,0.50
2022-10-10T00:52:54.824Z,0.70
2022-10-10T00:58:04.953Z,0.50
2022-10-10T01:03:14.017Z,0.60
2022-10-10T01:08:22.410Z,0.50
2022-10-10T01:13:29.151Z,0.50
2022-10-10T01:18:41.441Z,0.60
2022-10-10T01:23:51.474Z,0.70
2022-10-10T01:29:01.690Z,0.70
2022-10-10T01:34:11.947Z,0.60
2022-10-10T01:39:23.257Z,0.53
2022-10-10T01:44:32.774Z,0.60
2022-10-10T01:49:43.245Z,0.50
2022-10-10T01:54:54.134Z,0.67
2022-10-10T02:00:03.197Z,0.50
2022-10-10T02:05:14.117Z,0.50
2022-10-10T02:10:24.771Z,0.50
2022-10-10T02:15:35.988Z,0.60
2022-10-10T02:20:45.727Z,0.57
2022-10-10T02:25:57.996Z,0.50
2022-10-10T02:31:08.677Z,0.57
2022-10-10T02:36:18.046Z,0.50
2022-10-10T02:41:28.455Z,0.50
2022-10-10T02:46:37.475Z,0.50
2022-10-10T02:51:45.316Z,0.60
2022-10-10T02:56:53.926Z,0.50
2022-10-10T03:02:02.201Z,0.60
2022-10-10T03:07:11.492Z,0.57
2022-10-10T03:12:19.386Z,0.97
2022-10-10T03:17:27.431Z,0.60
2022-10-10T03:22:35.812Z,0.50
2022-10-10T03:27:44.054Z,0.47
2022-10-10T03:32:51.793Z,0.50
2022-10-10T03:38:00.460Z,0.50
2022-10-10T03:43:08.445Z,0.50
2022-10-10T03:48:19.440Z,0.40
2022-10-10T03:53:32.604Z,0.50
2022-10-10T03:58:42.218Z,0.60
2022-10-10T04:03:52.296Z,0.60
2022-10-10T04:09:00.279Z,0.50
2022-10-10T04:14:13.401Z,0.40
2022-10-10T04:19:26.098Z,0.50
2022-10-10T04:24:37.562Z,0.50
2022-10-10T04:29:52.556Z,0.60
2022-10-10T04:35:05.247Z,0.60
2022-10-10T04:40:20.631Z,0.50
2022-10-10T04:45:37.235Z,0.70
2022-10-10T04:50:43.010Z,0.50
2022-10-10T04:55:50.703Z,0.47
2022-10-10T05:01:03.277Z,0.70
2022-10-10T05:06:16.097Z,0.50
2022-10-10T05:11:24.034Z,0.50
2022-10-10T05:16:32.215Z,0.50
2022-10-10T05:21:42.039Z,0.40
2022-10-10T05:26:51.060Z,0.57
2022-10-10T05:31:59.371Z,0.50
2022-10-10T05:37:07.191Z,1.20
2022-10-10T05:42:15.981Z,0.70
2022-10-10T05:47:27.855Z,0.70
2022-10-10T05:52:35.911Z,0.50
2022-10-10T05:57:43.661Z,0.50
2022-10-10T06:02:51.463Z,0.60
2022-10-10T06:08:07.851Z,0.60
2022-10-10T06:13:10.326Z,0.90
2022-10-10T06:18:18.563Z,1.20
2022-10-10T06:23:30.838Z,5.50
2022-10-10T06:28:43.442Z,0.80
2022-10-10T06:33:52.950Z,0.60
2022-10-10T06:39:01.186Z,0.50
2022-10-10T06:44:08.984Z,0.50
2022-10-10T06:49:17.378Z,0.60
2022-10-10T06:54:24.932Z,0.70
2022-10-10T06:59:33.407Z,0.40
2022-10-10T07:04:42.422Z,0.40
2022-10-10T07:09:50.989Z,0.50
2022-10-10T07:15:01.325Z,0.50
2022-10-10T07:20:10.518Z,0.50
2022-10-10T07:25:19.080Z,0.43
2022-10-10T07:30:27.904Z,0.53
2022-10-10T07:35:36.924Z,0.50
2022-10-10T07:40:44.419Z,0.40
2022-10-10T07:45:51.890Z,0.60
2022-10-10T07:51:00.348Z,0.50
2022-10-10T07:56:11.169Z,0.50
2022-10-10T08:01:19.676Z,0.50
2022-10-10T08:06:29.719Z,0.40
2022-10-10T08:11:38.204Z,0.53
2022-10-10T08:16:47.121Z,0.40
2022-10-10T08:21:55.321Z,0.50
2022-10-10T08:27:03.518Z,0.70
2022-10-10T08:32:12.097Z,0.53
2022-10-10T08:37:22.936Z,0.60
2022-10-10T08:42:33.168Z,0.60
2022-10-10T08:47:45.180Z,0.60
2022-10-10T08:52:56.077Z,0.60
2022-10-10T08:58:06.602Z,0.50
2022-10-10T09:03:17.269Z,0.50
2022-10-10T09:08:27.649Z,0.50
2022-10-10T09:13:37.802Z,0.60
2022-10-10T09:18:47.723Z,0.50
2022-10-10T09:24:00.437Z,0.53
2022-10-10T09:29:14.911Z,0.70
2022-10-10T09:34:28.198Z,0.57
2022-10-10T09:39:39.667Z,0.60
2022-10-10T09:44:47.752Z,0.60
2022-10-10T09:49:56.044Z,0.80
2022-10-10T09:55:07.378Z,0.60
2022-10-10T10:00:19.149Z,0.60
2022-10-10T10:05:31.178Z,0.60
2022-10-10T10:10:41.917Z,0.77
2022-10-10T10:15:52.163Z,0.90
2022-10-10T10:21:02.757Z,0.77
2022-10-10T10:26:14.393Z,0.90
2022-10-10T10:31:48.233Z,0.90
2022-10-10T10:36:57.667Z,0.73
2022-10-10T10:42:11.842Z,0.90
2022-10-10T10:47:21.527Z,0.80
2022-10-10T10:52:32.279Z,0.80
2022-10-10T10:58:04.648Z,0.80
2022-10-10T11:03:09.827Z,0.70
2022-10-10T11:08:13.494Z,0.90
2022-10-10T11:13:23.458Z,0.70
2022-10-10T11:18:43.342Z,0.70
2022-10-10T11:23:58.354Z,1.00
2022-10-10T11:29:19.803Z,0.80
2022-10-10T11:34:33.164Z,0.90
2022-10-10T11:39:48.048Z,0.90
2022-10-10T11:45:05.143Z,0.70
2022-10-10T11:50:22.714Z,0.80
2022-10-10T11:55:44.617Z,1.00
2022-10-10T12:00:59.124Z,1.27
2022-10-10T12:06:09.655Z,0.90
2022-10-10T12:11:22.691Z,0.97
2022-10-10T12:16:33.228Z,1.00
2022-10-10T12:21:47.553Z,0.80
2022-10-10T12:27:02.877Z,1.00
2022-10-10T12:32:21.074Z,1.00
2022-10-10T12:37:33.451Z,0.90
2022-10-10T12:42:51.113Z,0.73
2022-10-10T12:48:10.406Z,0.80
2022-10-10T12:53:21.993Z,0.87
2022-10-10T12:58:37.860Z,0.90
2022-10-10T13:03:51.942Z,0.90
2022-10-10T13:09:11.493Z,0.80
2022-10-10T13:14:33.968Z,0.70
2022-10-10T13:19:49.533Z,0.97
2022-10-10T13:25:15.128Z,0.80
2022-10-10T13:30:37.938Z,0.70
2022-10-10T13:35:53.299Z,1.00
2022-10-10T13:41:05.884Z,0.90
2022-10-10T13:46:21.775Z,0.90
2022-10-10T13:51:33.670Z,0.93
2022-10-10T13:56:42.917Z,0.83
2022-10-10T14:01:53.649Z,0.80
2022-10-10T14:07:06.621Z,1.20
2022-10-10T14:12:20.768Z,0.90
2022-10-10T14:17:30.548Z,0.90
2022-10-10T14:22:40.908Z,0.80
2022-10-10T14:27:50.611Z,0.90
2022-10-10T14:32:59.841Z,1.00
2022-10-10T14:38:08.327Z,0.97
2022-10-10T14:43:17.529Z,0.93
2022-10-10T14:48:25.777Z,0.90
2022-10-10T14:53:34.316Z,0.90
2022-10-10T14:58:43.160Z,1.00
2022-10-10T15:03:51.446Z,0.80
2022-10-10T15:08:59.283Z,0.87
2022-10-10T15:14:07.797Z,1.00
2022-10-10T15:19:16.419Z,1.00
2022-10-10T15:24:24.263Z,0.90
2022-10-10T15:29:32.790Z,0.90
2022-10-10T15:34:40.743Z,0.97
2022-10-10T15:39:48.779Z,0.90
2022-10-10T15:44:56.651Z,0.90
2022-10-10T15:50:05.080Z,0.80
2022-10-10T15:55:16.237Z,1.00
2022-10-10T16:00:24.565Z,1.00
2022-10-10T16:05:33.977Z,1.00
2022-10-10T16:10:44.125Z,0.87
2022-10-10T16:15:55.676Z,0.80
2022-10-10T16:21:06.327Z,0.90
2022-10-10T16:26:16.903Z,0.90
2022-10-10T16:31:25.617Z,0.90
2022-10-10T16:36:36.243Z,1.00
2022-10-10T16:41:48.715Z,1.00
2022-10-10T16:46:55.471Z,0.80
2022-10-10T16:52:03.613Z,0.90
2022-10-10T16:57:15.217Z,0.80
2022-10-10T17:02:24.601Z,1.10
2022-10-10T17:07:32.554Z,1.00
2022-10-10T17:12:41.195Z,0.80
2022-10-10T17:17:50.793Z,0.80
2022-10-10T17:22:58.703Z,1.00
2022-10-10T17:28:09.028Z,1.20
2022-10-10T17:33:24.075Z,1.17
2022-10-10T17:38:40.151Z,1.10
2022-10-10T17:43:45.520Z,1.00
2022-10-10T17:48:55.090Z,1.20
2022-10-10T17:54:05.552Z,1.23
2022-10-10T17:59:14.696Z,1.20
2022-10-10T18:04:23.030Z,1.33
2022-10-10T18:09:33.615Z,1.10
2022-10-10T18:14:44.886Z,1.30
2022-10-10T18:19:58.526Z,1.17
2022-10-10T18:25:13.234Z,1.30
2022-10-10T18:30:24.703Z,1.00
2022-10-10T18:35:41.809Z,1.20
2022-10-10T18:41:01.779Z,1.37
2022-10-10T18:46:13.914Z,1.20
2022-10-10T18:51:29.016Z,1.30
2022-10-10T18:56:41.965Z,1.10
2022-10-10T19:01:53.870Z,1.20
2022-10-10T19:07:03.399Z,1.57
2022-10-10T19:12:19.190Z,1.30
2022-10-10T19:17:33.259Z,1.27
2022-10-10T19:22:46.917Z,1.23
2022-10-10T19:27:59.900Z,1.50
2022-10-10T19:33:10.147Z,1.23
2022-10-10T19:38:20.455Z,1.30
2022-10-10T19:43:34.138Z,1.20
2022-10-10T19:48:44.594Z,1.20
2022-10-10T19:53:56.172Z,1.30
2022-10-10T19:59:08.402Z,1.20
2022-10-10T20:04:18.641Z,1.40
2022-10-10T20:09:28.431Z,1.40
2022-10-10T20:14:42.762Z,1.30
2022-10-10T20:20:10.532Z,1.30
2022-10-10T20:31:05.024Z,1.30
2022-10-10T20:36:14.080Z,1.50
2022-10-10T20:47:02.941Z,1.63
2022-10-10T20:58:09.010Z,1.57
2022-10-10T21:03:34.118Z,1.30
2022-10-10T21:08:52.183Z,1.40
2022-10-10T21:14:03.427Z,1.30
2022-10-10T21:19:13.633Z,1.87
2022-10-10T21:24:23.824Z,1.40
2022-10-10T21:35:23.553Z,1.63
2022-10-10T21:46:35.813Z,1.93
2022-10-10T21:51:46.009Z,1.97
2022-10-10T21:56:56.848Z,1.97
2022-10-10T22:14:18.377Z,1.83
2022-10-10T22:19:31.268Z,1.80
2022-10-10T22:24:40.316Z,1.93
2022-10-10T22:29:48.395Z,1.93
2022-10-10T22:35:07.908Z,2.60
2022-10-10T22:40:17.145Z,2.40
2022-10-10T22:45:30.625Z,2.20
2022-10-10T22:56:19.857Z,2.40
2022-10-10T23:01:31.203Z,2.30
2022-10-10T23:07:01.773Z,2.50
2022-10-10T23:12:57.582Z,2.37
2022-10-10T23:18:30.701Z,2.80
2022-10-10T23:24:02.507Z,2.73
2022-10-10T23:29:27.412Z,2.70
2022-10-10T23:34:35.847Z,2.87
2022-10-10T23:39:43.889Z,3.33
2022-10-10T23:44:56.095Z,3.50
2022-10-10T23:50:04.611Z,3.73
2022-10-10T23:55:14.350Z,3.23
